sensor_id;sensor_type;location;lat;lon;timestamp;temperature;humidity
5806;DHT22;2929;50.810;8.342;2023-02-01T00:02:11;3.60;99.90
5806;DHT22;2929;50.810;8.342;2023-02-01T00:04:38;3.60;99.90
5806;DHT22;2929;50.810;8.342;2023-02-01T00:07:05;3.60;99.90
5806;DHT22;2929;50.810;8.342;2023-02-01T00:09:33;3.60;99.90
5806;DHT22;2929;50.810;8.342;2023-02-01T00:12:00;3.70;99.90
5806;DHT22;2929;50.810;8.342;2023-02-01T00:14:29;3.70;99.90
5806;DHT22;2929;50.810;8.342;2023-02-01T00:16:59;3.80;99.90
5806;DHT22;2929;50.810;8.342;2023-02-01T00:19:26;3.90;99.90
5806;DHT22;2929;50.810;8.342;2023-02-01T00:21:53;3.90;99.90
5806;DHT22;2929;50.810;8.342;2023-02-01T00:24:20;3.90;99.90
5806;DHT22;2929;50.810;8.342;2023-02-01T00:26:47;3.80;99.90
5806;DHT22;2929;50.810;8.342;2023-02-01T00:29:17;3.80;99.90
5806;DHT22;2929;50.810;8.342;2023-02-01T00:31:44;3.80;99.90
5806;DHT22;2929;50.810;8.342;2023-02-01T00:34:15;4.00;99.90
5806;DHT22;2929;50.810;8.342;2023-02-01T00:36:43;4.00;99.90
5806;DHT22;2929;50.810;8.342;2023-02-01T00:39:11;4.00;99.90
5806;DHT22;2929;50.810;8.342;2023-02-01T00:41:38;3.90;99.90
5806;DHT22;2929;50.810;8.342;2023-02-01T00:44:06;3.90;99.90
5806;DHT22;2929;50.810;8.342;2023-02-01T00:46:33;4.00;99.90
5806;DHT22;2929;50.810;8.342;2023-02-01T00:49:00;4.10;99.90
5806;DHT22;2929;50.810;8.342;2023-02-01T00:51:29;4.10;99.90
5806;DHT22;2929;50.810;8.342;2023-02-01T00:53:57;4.10;99.90
5806;DHT22;2929;50.810;8.342;2023-02-01T00:56:25;4.20;99.90
5806;DHT22;2929;50.810;8.342;2023-02-01T00:59:25;4.10;99.90
5806;DHT22;2929;50.810;8.342;2023-02-01T01:01:52;4.10;99.90
5806;DHT22;2929;50.810;8.342;2023-02-01T01:04:19;4.10;99.90
5806;DHT22;2929;50.810;8.342;2023-02-01T01:06:47;4.10;99.90
5806;DHT22;2929;50.810;8.342;2023-02-01T01:09:14;4.10;99.90
5806;DHT22;2929;50.810;8.342;2023-02-01T01:11:41;4.10;99.90
5806;DHT22;2929;50.810;8.342;2023-02-01T01:14:08;4.00;99.90
5806;DHT22;2929;50.810;8.342;2023-02-01T01:16:36;4.00;99.90
5806;DHT22;2929;50.810;8.342;2023-02-01T01:19:04;4.00;99.90
5806;DHT22;2929;50.810;8.342;2023-02-01T01:21:31;4.00;99.90
5806;DHT22;2929;50.810;8.342;2023-02-01T01:23:59;4.00;99.90
5806;DHT22;2929;50.810;8.342;2023-02-01T01:26:28;3.90;99.90
5806;DHT22;2929;50.810;8.342;2023-02-01T01:28:56;3.90;99.90
5806;DHT22;2929;50.810;8.342;2023-02-01T01:31:24;4.00;99.90
5806;DHT22;2929;50.810;8.342;2023-02-01T01:33:52;3.90;99.90
5806;DHT22;2929;50.810;8.342;2023-02-01T01:36:20;3.90;99.90
5806;DHT22;2929;50.810;8.342;2023-02-01T01:38:48;4.00;99.90
5806;DHT22;2929;50.810;8.342;2023-02-01T01:41:18;3.90;99.90
5806;DHT22;2929;50.810;8.342;2023-02-01T01:43:48;3.90;99.90
5806;DHT22;2929;50.810;8.342;2023-02-01T01:46:19;4.00;99.90
5806;DHT22;2929;50.810;8.342;2023-02-01T01:48:48;4.00;99.90
5806;DHT22;2929;50.810;8.342;2023-02-01T01:51:18;4.10;99.90
5806;DHT22;2929;50.810;8.342;2023-02-01T01:53:53;4.10;99.90
5806;DHT22;2929;50.810;8.342;2023-02-01T01:56:22;4.00;99.90
5806;DHT22;2929;50.810;8.342;2023-02-01T01:58:50;4.00;99.90
5806;DHT22;2929;50.810;8.342;2023-02-01T02:01:18;4.10;99.90
5806;DHT22;2929;50.810;8.342;2023-02-01T02:03:46;4.00;99.90
5806;DHT22;2929;50.810;8.342;2023-02-01T02:06:19;4.00;99.90
5806;DHT22;2929;50.810;8.342;2023-02-01T02:08:51;4.00;99.90
5806;DHT22;2929;50.810;8.342;2023-02-01T02:11:18;4.00;99.90
5806;DHT22;2929;50.810;8.342;2023-02-01T02:13:49;4.00;99.90
5806;DHT22;2929;50.810;8.342;2023-02-01T02:16:34;3.90;99.90
5806;DHT22;2929;50.810;8.342;2023-02-01T02:22:30;3.70;99.90
5806;DHT22;2929;50.810;8.342;2023-02-01T02:25:23;3.70;99.90
5806;DHT22;2929;50.810;8.342;2023-02-01T02:28:01;3.70;99.90
5806;DHT22;2929;50.810;8.342;2023-02-01T02:36:21;3.70;99.90
5806;DHT22;2929;50.810;8.342;2023-02-01T02:38:58;3.80;99.90
5806;DHT22;2929;50.810;8.342;2023-02-01T02:41:32;3.80;99.90
5806;DHT22;2929;50.810;8.342;2023-02-01T02:44:23;3.80;99.90
5806;DHT22;2929;50.810;8.342;2023-02-01T02:47:25;3.80;99.90
5806;DHT22;2929;50.810;8.342;2023-02-01T02:50:01;3.80;99.90
5806;DHT22;2929;50.810;8.342;2023-02-01T02:52:57;3.80;99.90
5806;DHT22;2929;50.810;8.342;2023-02-01T02:55:44;4.00;99.90
5806;DHT22;2929;50.810;8.342;2023-02-01T02:58:13;3.90;99.90
5806;DHT22;2929;50.810;8.342;2023-02-01T03:00:59;3.90;99.90
5806;DHT22;2929;50.810;8.342;2023-02-01T03:03:44;3.70;99.90
5806;DHT22;2929;50.810;8.342;2023-02-01T03:06:32;3.80;99.90
5806;DHT22;2929;50.810;8.342;2023-02-01T03:09:01;3.80;99.90
5806;DHT22;2929;50.810;8.342;2023-02-01T03:11:32;3.70;99.90
5806;DHT22;2929;50.810;8.342;2023-02-01T03:14:15;3.70;99.90
5806;DHT22;2929;50.810;8.342;2023-02-01T03:16:47;3.60;99.90
5806;DHT22;2929;50.810;8.342;2023-02-01T03:19:21;3.70;99.90
5806;DHT22;2929;50.810;8.342;2023-02-01T03:21:52;3.60;99.90
5806;DHT22;2929;50.810;8.342;2023-02-01T03:28:09;3.80;99.90
5806;DHT22;2929;50.810;8.342;2023-02-01T03:30:40;3.80;99.90
5806;DHT22;2929;50.810;8.342;2023-02-01T03:33:11;3.80;99.90
5806;DHT22;2929;50.810;8.342;2023-02-01T03:35:54;3.70;99.90
5806;DHT22;2929;50.810;8.342;2023-02-01T03:38:27;3.80;99.90
5806;DHT22;2929;50.810;8.342;2023-02-01T03:41:02;3.70;99.90
5806;DHT22;2929;50.810;8.342;2023-02-01T03:43:36;3.70;99.90
5806;DHT22;2929;50.810;8.342;2023-02-01T03:46:09;3.70;99.90
5806;DHT22;2929;50.810;8.342;2023-02-01T03:48:39;3.70;99.90
5806;DHT22;2929;50.810;8.342;2023-02-01T03:51:08;3.70;99.90
5806;DHT22;2929;50.810;8.342;2023-02-01T03:53:38;3.80;99.90
5806;DHT22;2929;50.810;8.342;2023-02-01T03:56:08;3.70;99.90
5806;DHT22;2929;50.810;8.342;2023-02-01T03:58:37;3.70;99.90
5806;DHT22;2929;50.810;8.342;2023-02-01T04:01:04;3.70;99.90
5806;DHT22;2929;50.810;8.342;2023-02-01T04:03:35;3.70;99.90
5806;DHT22;2929;50.810;8.342;2023-02-01T04:06:02;3.80;99.90
5806;DHT22;2929;50.810;8.342;2023-02-01T04:08:29;3.60;99.90
5806;DHT22;2929;50.810;8.342;2023-02-01T04:10:58;3.70;99.90
5806;DHT22;2929;50.810;8.342;2023-02-01T04:13:25;3.60;99.90
5806;DHT22;2929;50.810;8.342;2023-02-01T04:15:52;3.70;99.90
5806;DHT22;2929;50.810;8.342;2023-02-01T04:18:18;3.60;99.90
5806;DHT22;2929;50.810;8.342;2023-02-01T04:20:45;3.60;99.90
5806;DHT22;2929;50.810;8.342;2023-02-01T04:23:12;3.50;99.90
5806;DHT22;2929;50.810;8.342;2023-02-01T04:25:41;3.50;99.90
5806;DHT22;2929;50.810;8.342;2023-02-01T04:28:09;3.50;99.90
5806;DHT22;2929;50.810;8.342;2023-02-01T04:30:36;3.60;99.90
5806;DHT22;2929;50.810;8.342;2023-02-01T04:33:03;3.60;99.90
5806;DHT22;2929;50.810;8.342;2023-02-01T04:35:32;3.60;99.90
5806;DHT22;2929;50.810;8.342;2023-02-01T04:37:59;3.50;99.90
5806;DHT22;2929;50.810;8.342;2023-02-01T04:40:26;3.50;99.90
5806;DHT22;2929;50.810;8.342;2023-02-01T04:42:53;3.40;99.90
5806;DHT22;2929;50.810;8.342;2023-02-01T04:45:21;3.50;99.90
5806;DHT22;2929;50.810;8.342;2023-02-01T04:47:48;3.50;99.90
5806;DHT22;2929;50.810;8.342;2023-02-01T04:50:16;3.50;99.90
5806;DHT22;2929;50.810;8.342;2023-02-01T04:52:43;3.40;99.90
5806;DHT22;2929;50.810;8.342;2023-02-01T04:55:10;3.50;99.90
5806;DHT22;2929;50.810;8.342;2023-02-01T04:57:39;3.50;99.90
5806;DHT22;2929;50.810;8.342;2023-02-01T05:00:08;3.50;99.90
5806;DHT22;2929;50.810;8.342;2023-02-01T05:02:36;3.40;99.90
5806;DHT22;2929;50.810;8.342;2023-02-01T05:05:05;3.50;99.90
5806;DHT22;2929;50.810;8.342;2023-02-01T05:07:32;3.60;99.90
5806;DHT22;2929;50.810;8.342;2023-02-01T05:09:59;3.50;99.90
5806;DHT22;2929;50.810;8.342;2023-02-01T05:12:26;3.50;99.90
5806;DHT22;2929;50.810;8.342;2023-02-01T05:15:11;3.40;99.90
5806;DHT22;2929;50.810;8.342;2023-02-01T05:17:39;3.50;99.90
5806;DHT22;2929;50.810;8.342;2023-02-01T05:20:07;3.60;99.90
5806;DHT22;2929;50.810;8.342;2023-02-01T05:22:35;3.70;99.90
5806;DHT22;2929;50.810;8.342;2023-02-01T05:25:02;3.70;99.90
5806;DHT22;2929;50.810;8.342;2023-02-01T05:27:29;3.60;99.90
5806;DHT22;2929;50.810;8.342;2023-02-01T05:29:56;3.70;99.90
5806;DHT22;2929;50.810;8.342;2023-02-01T05:32:23;3.70;99.90
5806;DHT22;2929;50.810;8.342;2023-02-01T05:34:51;3.60;99.90
5806;DHT22;2929;50.810;8.342;2023-02-01T05:37:19;3.50;99.90
5806;DHT22;2929;50.810;8.342;2023-02-01T05:39:46;3.60;99.90
5806;DHT22;2929;50.810;8.342;2023-02-01T05:42:13;3.70;99.90
5806;DHT22;2929;50.810;8.342;2023-02-01T05:44:40;3.60;99.90
5806;DHT22;2929;50.810;8.342;2023-02-01T05:47:07;3.70;99.90
5806;DHT22;2929;50.810;8.342;2023-02-01T05:49:34;3.70;99.90
5806;DHT22;2929;50.810;8.342;2023-02-01T05:52:03;3.70;99.90
5806;DHT22;2929;50.810;8.342;2023-02-01T05:54:30;3.70;99.90
5806;DHT22;2929;50.810;8.342;2023-02-01T05:56:57;3.70;99.90
5806;DHT22;2929;50.810;8.342;2023-02-01T05:59:24;3.80;99.90
5806;DHT22;2929;50.810;8.342;2023-02-01T06:01:54;3.80;99.90
5806;DHT22;2929;50.810;8.342;2023-02-01T06:04:37;3.80;99.90
5806;DHT22;2929;50.810;8.342;2023-02-01T06:07:18;3.90;99.90
5806;DHT22;2929;50.810;8.342;2023-02-01T06:09:55;3.80;99.90
5806;DHT22;2929;50.810;8.342;2023-02-01T06:12:27;3.80;99.90
5806;DHT22;2929;50.810;8.342;2023-02-01T06:15:01;3.80;99.90
5806;DHT22;2929;50.810;8.342;2023-02-01T06:17:35;3.80;99.90
5806;DHT22;2929;50.810;8.342;2023-02-01T06:20:13;3.80;99.90
5806;DHT22;2929;50.810;8.342;2023-02-01T06:22:48;3.80;99.90
5806;DHT22;2929;50.810;8.342;2023-02-01T06:25:29;3.80;99.90
5806;DHT22;2929;50.810;8.342;2023-02-01T06:28:00;3.80;99.90
5806;DHT22;2929;50.810;8.342;2023-02-01T06:30:31;3.90;99.90
5806;DHT22;2929;50.810;8.342;2023-02-01T06:32:58;3.90;99.90
5806;DHT22;2929;50.810;8.342;2023-02-01T06:35:25;3.90;99.90
5806;DHT22;2929;50.810;8.342;2023-02-01T06:37:53;3.90;99.90
5806;DHT22;2929;50.810;8.342;2023-02-01T06:40:20;3.90;99.90
5806;DHT22;2929;50.810;8.342;2023-02-01T06:42:48;3.90;99.90
5806;DHT22;2929;50.810;8.342;2023-02-01T06:45:15;3.80;99.90
5806;DHT22;2929;50.810;8.342;2023-02-01T06:47:42;3.80;99.90
5806;DHT22;2929;50.810;8.342;2023-02-01T06:50:10;3.80;99.90
5806;DHT22;2929;50.810;8.342;2023-02-01T06:52:37;3.80;99.90
5806;DHT22;2929;50.810;8.342;2023-02-01T06:55:06;3.80;99.90
5806;DHT22;2929;50.810;8.342;2023-02-01T06:57:33;3.90;99.90
5806;DHT22;2929;50.810;8.342;2023-02-01T07:00:02;3.90;99.90
5806;DHT22;2929;50.810;8.342;2023-02-01T07:02:29;3.90;99.90
5806;DHT22;2929;50.810;8.342;2023-02-01T07:04:56;3.90;99.90
5806;DHT22;2929;50.810;8.342;2023-02-01T07:07:23;3.90;99.90
5806;DHT22;2929;50.810;8.342;2023-02-01T07:09:50;3.90;99.90
5806;DHT22;2929;50.810;8.342;2023-02-01T07:12:19;3.90;99.90
5806;DHT22;2929;50.810;8.342;2023-02-01T07:14:46;3.80;99.90
5806;DHT22;2929;50.810;8.342;2023-02-01T07:17:13;3.80;99.90
5806;DHT22;2929;50.810;8.342;2023-02-01T07:19:40;3.90;99.90
5806;DHT22;2929;50.810;8.342;2023-02-01T07:22:07;3.80;99.90
5806;DHT22;2929;50.810;8.342;2023-02-01T07:24:34;3.90;99.90
5806;DHT22;2929;50.810;8.342;2023-02-01T07:30:21;3.90;99.90
5806;DHT22;2929;50.810;8.342;2023-02-01T07:32:48;3.90;99.90
5806;DHT22;2929;50.810;8.342;2023-02-01T07:35:15;3.90;99.90
5806;DHT22;2929;50.810;8.342;2023-02-01T07:37:42;3.90;99.90
5806;DHT22;2929;50.810;8.342;2023-02-01T07:40:10;3.90;99.90
5806;DHT22;2929;50.810;8.342;2023-02-01T07:42:38;3.90;99.90
5806;DHT22;2929;50.810;8.342;2023-02-01T07:45:06;3.90;99.90
5806;DHT22;2929;50.810;8.342;2023-02-01T07:47:34;3.90;99.90
5806;DHT22;2929;50.810;8.342;2023-02-01T07:50:01;3.90;99.90
5806;DHT22;2929;50.810;8.342;2023-02-01T07:52:28;3.90;99.90
5806;DHT22;2929;50.810;8.342;2023-02-01T07:54:55;3.90;99.90
5806;DHT22;2929;50.810;8.342;2023-02-01T07:57:23;3.90;99.90
5806;DHT22;2929;50.810;8.342;2023-02-01T07:59:50;3.90;99.90
5806;DHT22;2929;50.810;8.342;2023-02-01T08:02:39;3.90;99.90
5806;DHT22;2929;50.810;8.342;2023-02-01T08:05:07;3.90;99.90
5806;DHT22;2929;50.810;8.342;2023-02-01T08:07:35;3.90;99.90
5806;DHT22;2929;50.810;8.342;2023-02-01T08:10:02;4.00;99.90
5806;DHT22;2929;50.810;8.342;2023-02-01T08:12:31;3.80;99.90
5806;DHT22;2929;50.810;8.342;2023-02-01T08:14:58;3.90;99.90
5806;DHT22;2929;50.810;8.342;2023-02-01T08:17:25;3.90;99.90
5806;DHT22;2929;50.810;8.342;2023-02-01T08:19:55;3.80;99.90
5806;DHT22;2929;50.810;8.342;2023-02-01T08:22:22;3.90;99.90
5806;DHT22;2929;50.810;8.342;2023-02-01T08:24:49;3.90;99.90
5806;DHT22;2929;50.810;8.342;2023-02-01T08:27:17;3.90;99.90
5806;DHT22;2929;50.810;8.342;2023-02-01T08:29:44;3.90;99.90
5806;DHT22;2929;50.810;8.342;2023-02-01T08:32:11;3.80;99.90
5806;DHT22;2929;50.810;8.342;2023-02-01T08:34:38;3.80;99.90
5806;DHT22;2929;50.810;8.342;2023-02-01T08:37:08;3.80;99.90
5806;DHT22;2929;50.810;8.342;2023-02-01T08:39:36;3.80;99.90
5806;DHT22;2929;50.810;8.342;2023-02-01T08:42:04;3.80;99.90
5806;DHT22;2929;50.810;8.342;2023-02-01T08:44:49;3.80;99.90
5806;DHT22;2929;50.810;8.342;2023-02-01T08:47:17;3.70;99.90
5806;DHT22;2929;50.810;8.342;2023-02-01T08:49:45;3.70;99.90
5806;DHT22;2929;50.810;8.342;2023-02-01T08:52:14;3.70;99.90
5806;DHT22;2929;50.810;8.342;2023-02-01T08:54:41;3.70;99.90
5806;DHT22;2929;50.810;8.342;2023-02-01T08:57:08;3.70;99.90
5806;DHT22;2929;50.810;8.342;2023-02-01T08:59:36;3.70;99.90
5806;DHT22;2929;50.810;8.342;2023-02-01T09:02:03;3.70;99.90
5806;DHT22;2929;50.810;8.342;2023-02-01T09:04:30;3.80;99.90
5806;DHT22;2929;50.810;8.342;2023-02-01T09:06:58;3.80;99.90
5806;DHT22;2929;50.810;8.342;2023-02-01T09:09:27;3.80;99.90
5806;DHT22;2929;50.810;8.342;2023-02-01T09:11:55;3.80;99.90
5806;DHT22;2929;50.810;8.342;2023-02-01T09:14:22;3.80;99.90
5806;DHT22;2929;50.810;8.342;2023-02-01T09:16:49;3.80;99.90
5806;DHT22;2929;50.810;8.342;2023-02-01T09:19:16;3.80;99.90
5806;DHT22;2929;50.810;8.342;2023-02-01T09:21:43;3.80;99.90
5806;DHT22;2929;50.810;8.342;2023-02-01T09:24:10;3.80;99.90
5806;DHT22;2929;50.810;8.342;2023-02-01T09:26:39;3.90;99.90
5806;DHT22;2929;50.810;8.342;2023-02-01T09:29:06;3.90;99.90
5806;DHT22;2929;50.810;8.342;2023-02-01T09:31:36;3.90;99.90
5806;DHT22;2929;50.810;8.342;2023-02-01T09:34:04;3.80;99.90
5806;DHT22;2929;50.810;8.342;2023-02-01T09:36:31;3.80;99.90
5806;DHT22;2929;50.810;8.342;2023-02-01T09:38:59;3.80;99.90
5806;DHT22;2929;50.810;8.342;2023-02-01T09:41:35;3.80;99.90
5806;DHT22;2929;50.810;8.342;2023-02-01T09:44:21;3.80;99.90
5806;DHT22;2929;50.810;8.342;2023-02-01T09:46:53;3.90;99.90
5806;DHT22;2929;50.810;8.342;2023-02-01T09:49:26;3.90;99.90
5806;DHT22;2929;50.810;8.342;2023-02-01T09:51:55;3.90;99.90
5806;DHT22;2929;50.810;8.342;2023-02-01T09:54:24;3.90;99.90
5806;DHT22;2929;50.810;8.342;2023-02-01T09:56:56;3.90;99.90
5806;DHT22;2929;50.810;8.342;2023-02-01T09:59:34;3.90;99.90
5806;DHT22;2929;50.810;8.342;2023-02-01T10:04:50;3.90;99.90
5806;DHT22;2929;50.810;8.342;2023-02-01T10:07:29;3.90;99.90
5806;DHT22;2929;50.810;8.342;2023-02-01T10:10:00;4.00;99.90
5806;DHT22;2929;50.810;8.342;2023-02-01T10:12:49;4.00;99.90
5806;DHT22;2929;50.810;8.342;2023-02-01T10:15:40;4.00;99.90
5806;DHT22;2929;50.810;8.342;2023-02-01T10:18:18;4.10;99.90
5806;DHT22;2929;50.810;8.342;2023-02-01T10:20:56;4.10;99.90
5806;DHT22;2929;50.810;8.342;2023-02-01T10:23:36;4.10;99.90
5806;DHT22;2929;50.810;8.342;2023-02-01T10:26:12;4.10;99.90
5806;DHT22;2929;50.810;8.342;2023-02-01T10:28:45;4.00;99.90
5806;DHT22;2929;50.810;8.342;2023-02-01T10:31:15;4.10;99.90
5806;DHT22;2929;50.810;8.342;2023-02-01T10:33:46;4.10;99.90
5806;DHT22;2929;50.810;8.342;2023-02-01T10:36:16;4.10;99.90
5806;DHT22;2929;50.810;8.342;2023-02-01T10:38:46;4.10;99.90
5806;DHT22;2929;50.810;8.342;2023-02-01T10:41:16;4.20;99.90
5806;DHT22;2929;50.810;8.342;2023-02-01T10:43:45;4.10;99.90
5806;DHT22;2929;50.810;8.342;2023-02-01T10:46:16;4.20;99.90
5806;DHT22;2929;50.810;8.342;2023-02-01T10:48:43;4.20;99.90
5806;DHT22;2929;50.810;8.342;2023-02-01T10:51:14;4.20;99.90
5806;DHT22;2929;50.810;8.342;2023-02-01T10:53:48;4.20;99.90
5806;DHT22;2929;50.810;8.342;2023-02-01T10:56:23;4.20;99.90
5806;DHT22;2929;50.810;8.342;2023-02-01T10:58:50;4.20;99.90
5806;DHT22;2929;50.810;8.342;2023-02-01T11:01:23;4.20;99.90
5806;DHT22;2929;50.810;8.342;2023-02-01T11:03:54;4.20;99.90
5806;DHT22;2929;50.810;8.342;2023-02-01T11:06:27;4.30;99.90
5806;DHT22;2929;50.810;8.342;2023-02-01T11:08:57;4.30;99.90
5806;DHT22;2929;50.810;8.342;2023-02-01T11:11:25;4.20;99.90
5806;DHT22;2929;50.810;8.342;2023-02-01T11:13:54;4.20;99.90
5806;DHT22;2929;50.810;8.342;2023-02-01T11:16:30;4.30;99.90
5806;DHT22;2929;50.810;8.342;2023-02-01T11:18:58;4.20;99.90
5806;DHT22;2929;50.810;8.342;2023-02-01T11:21:26;4.30;99.90
5806;DHT22;2929;50.810;8.342;2023-02-01T11:23:54;4.30;99.90
5806;DHT22;2929;50.810;8.342;2023-02-01T11:26:22;4.30;99.90
5806;DHT22;2929;50.810;8.342;2023-02-01T11:28:57;4.30;99.90
5806;DHT22;2929;50.810;8.342;2023-02-01T11:31:27;4.30;99.90
5806;DHT22;2929;50.810;8.342;2023-02-01T11:33:57;4.30;99.90
5806;DHT22;2929;50.810;8.342;2023-02-01T11:36:28;4.30;99.90
5806;DHT22;2929;50.810;8.342;2023-02-01T11:39:09;4.40;99.90
5806;DHT22;2929;50.810;8.342;2023-02-01T11:41:41;4.30;99.90
5806;DHT22;2929;50.810;8.342;2023-02-01T11:44:21;4.30;99.90
5806;DHT22;2929;50.810;8.342;2023-02-01T11:46:50;4.40;99.90
5806;DHT22;2929;50.810;8.342;2023-02-01T11:49:22;4.50;99.90
5806;DHT22;2929;50.810;8.342;2023-02-01T11:52:00;4.50;99.90
5806;DHT22;2929;50.810;8.342;2023-02-01T11:54:44;4.60;99.90
5806;DHT22;2929;50.810;8.342;2023-02-01T11:57:26;4.60;99.90
5806;DHT22;2929;50.810;8.342;2023-02-01T12:03:10;4.60;99.90
5806;DHT22;2929;50.810;8.342;2023-02-01T12:05:50;4.60;99.90
5806;DHT22;2929;50.810;8.342;2023-02-01T12:08:34;4.60;99.90
5806;DHT22;2929;50.810;8.342;2023-02-01T12:11:21;4.50;99.90
5806;DHT22;2929;50.810;8.342;2023-02-01T12:13:58;4.50;99.90
5806;DHT22;2929;50.810;8.342;2023-02-01T12:16:35;4.50;99.90
5806;DHT22;2929;50.810;8.342;2023-02-01T12:19:15;4.50;99.90
5806;DHT22;2929;50.810;8.342;2023-02-01T12:21:56;4.50;99.90
5806;DHT22;2929;50.810;8.342;2023-02-01T12:24:42;4.50;99.90
5806;DHT22;2929;50.810;8.342;2023-02-01T12:27:31;4.60;99.90
5806;DHT22;2929;50.810;8.342;2023-02-01T12:30:17;4.60;99.90
5806;DHT22;2929;50.810;8.342;2023-02-01T12:32:56;4.60;99.90
5806;DHT22;2929;50.810;8.342;2023-02-01T12:35:49;4.60;99.90
5806;DHT22;2929;50.810;8.342;2023-02-01T12:38:34;4.70;99.90
5806;DHT22;2929;50.810;8.342;2023-02-01T12:41:15;4.60;99.90
5806;DHT22;2929;50.810;8.342;2023-02-01T12:43:49;4.70;99.90
5806;DHT22;2929;50.810;8.342;2023-02-01T12:46:23;4.70;99.90
5806;DHT22;2929;50.810;8.342;2023-02-01T12:48:57;4.60;99.90
5806;DHT22;2929;50.810;8.342;2023-02-01T12:51:31;4.60;99.90
5806;DHT22;2929;50.810;8.342;2023-02-01T12:54:03;4.60;99.90
5806;DHT22;2929;50.810;8.342;2023-02-01T12:56:34;4.70;99.90
5806;DHT22;2929;50.810;8.342;2023-02-01T12:59:05;4.70;99.90
5806;DHT22;2929;50.810;8.342;2023-02-01T13:01:37;4.80;99.90
5806;DHT22;2929;50.810;8.342;2023-02-01T13:04:12;4.80;99.90
5806;DHT22;2929;50.810;8.342;2023-02-01T13:06:46;4.80;99.90
5806;DHT22;2929;50.810;8.342;2023-02-01T13:09:21;4.80;99.90
5806;DHT22;2929;50.810;8.342;2023-02-01T13:11:52;4.70;99.90
5806;DHT22;2929;50.810;8.342;2023-02-01T13:14:25;4.70;99.90
5806;DHT22;2929;50.810;8.342;2023-02-01T13:16:59;4.60;99.90
5806;DHT22;2929;50.810;8.342;2023-02-01T13:19:40;4.60;99.90
5806;DHT22;2929;50.810;8.342;2023-02-01T13:22:13;4.50;99.90
5806;DHT22;2929;50.810;8.342;2023-02-01T13:24:44;4.40;99.90
5806;DHT22;2929;50.810;8.342;2023-02-01T13:27:14;4.30;99.90
5806;DHT22;2929;50.810;8.342;2023-02-01T13:29:53;4.30;99.90
5806;DHT22;2929;50.810;8.342;2023-02-01T13:32:56;4.20;99.90
5806;DHT22;2929;50.810;8.342;2023-02-01T13:41:29;4.20;99.90
5806;DHT22;2929;50.810;8.342;2023-02-01T13:43:59;4.20;99.90
5806;DHT22;2929;50.810;8.342;2023-02-01T13:46:28;4.20;99.90
5806;DHT22;2929;50.810;8.342;2023-02-01T13:48:57;4.30;99.90
5806;DHT22;2929;50.810;8.342;2023-02-01T13:51:41;4.30;99.90
5806;DHT22;2929;50.810;8.342;2023-02-01T13:54:28;4.40;99.90
5806;DHT22;2929;50.810;8.342;2023-02-01T13:56:56;4.40;99.90
5806;DHT22;2929;50.810;8.342;2023-02-01T14:00:05;4.40;99.90
5806;DHT22;2929;50.810;8.342;2023-02-01T14:06:02;4.40;99.90
5806;DHT22;2929;50.810;8.342;2023-02-01T14:08:44;4.40;99.90
5806;DHT22;2929;50.810;8.342;2023-02-01T14:11:36;4.30;99.90
5806;DHT22;2929;50.810;8.342;2023-02-01T14:17:39;4.30;99.90
5806;DHT22;2929;50.810;8.342;2023-02-01T14:23:20;4.20;99.90
5806;DHT22;2929;50.810;8.342;2023-02-01T14:26:03;4.10;99.90
5806;DHT22;2929;50.810;8.342;2023-02-01T14:28:32;4.10;99.90
5806;DHT22;2929;50.810;8.342;2023-02-01T14:31:34;4.00;99.90
5806;DHT22;2929;50.810;8.342;2023-02-01T14:34:10;4.00;99.90
5806;DHT22;2929;50.810;8.342;2023-02-01T14:36:50;4.00;99.90
5806;DHT22;2929;50.810;8.342;2023-02-01T14:39:27;4.00;99.90
5806;DHT22;2929;50.810;8.342;2023-02-01T14:41:58;3.90;99.90
5806;DHT22;2929;50.810;8.342;2023-02-01T14:44:30;3.90;99.90
5806;DHT22;2929;50.810;8.342;2023-02-01T14:50:30;3.80;99.90
5806;DHT22;2929;50.810;8.342;2023-02-01T14:53:16;3.90;99.90
5806;DHT22;2929;50.810;8.342;2023-02-01T14:55:48;3.90;99.90
5806;DHT22;2929;50.810;8.342;2023-02-01T14:58:29;3.90;99.90
5806;DHT22;2929;50.810;8.342;2023-02-01T15:01:02;3.80;99.90
5806;DHT22;2929;50.810;8.342;2023-02-01T15:03:48;3.90;99.90
5806;DHT22;2929;50.810;8.342;2023-02-01T15:06:27;4.00;99.90
5806;DHT22;2929;50.810;8.342;2023-02-01T15:08:57;3.90;99.90
5806;DHT22;2929;50.810;8.342;2023-02-01T15:11:25;4.00;99.90
5806;DHT22;2929;50.810;8.342;2023-02-01T15:13:53;4.00;99.90
5806;DHT22;2929;50.810;8.342;2023-02-01T15:16:25;4.00;99.90
5806;DHT22;2929;50.810;8.342;2023-02-01T15:19:07;4.00;99.90
5806;DHT22;2929;50.810;8.342;2023-02-01T15:21:43;4.10;99.90
5806;DHT22;2929;50.810;8.342;2023-02-01T15:24:11;4.10;99.90
5806;DHT22;2929;50.810;8.342;2023-02-01T15:26:39;4.10;99.90
5806;DHT22;2929;50.810;8.342;2023-02-01T15:29:11;4.10;99.90
5806;DHT22;2929;50.810;8.342;2023-02-01T15:31:42;4.00;99.90
5806;DHT22;2929;50.810;8.342;2023-02-01T15:34:10;4.00;99.90
5806;DHT22;2929;50.810;8.342;2023-02-01T15:36:37;4.00;99.90
5806;DHT22;2929;50.810;8.342;2023-02-01T15:39:21;4.00;99.90
5806;DHT22;2929;50.810;8.342;2023-02-01T15:41:53;4.10;99.90
5806;DHT22;2929;50.810;8.342;2023-02-01T15:44:29;4.10;99.90
5806;DHT22;2929;50.810;8.342;2023-02-01T15:46:59;4.10;99.90
5806;DHT22;2929;50.810;8.342;2023-02-01T15:49:29;4.10;99.90
5806;DHT22;2929;50.810;8.342;2023-02-01T15:51:59;4.10;99.90
5806;DHT22;2929;50.810;8.342;2023-02-01T15:54:29;4.10;99.90
5806;DHT22;2929;50.810;8.342;2023-02-01T15:57:00;4.10;99.90
5806;DHT22;2929;50.810;8.342;2023-02-01T15:59:32;4.20;99.90
5806;DHT22;2929;50.810;8.342;2023-02-01T16:02:03;4.10;99.90
5806;DHT22;2929;50.810;8.342;2023-02-01T16:04:30;4.20;99.90
5806;DHT22;2929;50.810;8.342;2023-02-01T16:07:02;4.20;99.90
5806;DHT22;2929;50.810;8.342;2023-02-01T16:09:37;4.20;99.90
5806;DHT22;2929;50.810;8.342;2023-02-01T16:12:28;4.30;99.90
5806;DHT22;2929;50.810;8.342;2023-02-01T16:14:55;4.30;99.90
5806;DHT22;2929;50.810;8.342;2023-02-01T16:17:24;4.20;99.90
5806;DHT22;2929;50.810;8.342;2023-02-01T16:19:51;4.20;99.90
5806;DHT22;2929;50.810;8.342;2023-02-01T16:22:18;4.20;99.90
5806;DHT22;2929;50.810;8.342;2023-02-01T16:24:45;4.20;99.90
5806;DHT22;2929;50.810;8.342;2023-02-01T16:27:13;4.10;99.90
5806;DHT22;2929;50.810;8.342;2023-02-01T16:29:40;4.10;99.90
5806;DHT22;2929;50.810;8.342;2023-02-01T16:32:14;4.10;99.90
5806;DHT22;2929;50.810;8.342;2023-02-01T16:34:44;4.10;99.90
5806;DHT22;2929;50.810;8.342;2023-02-01T16:37:12;4.10;99.90
5806;DHT22;2929;50.810;8.342;2023-02-01T16:39:40;4.20;99.90
5806;DHT22;2929;50.810;8.342;2023-02-01T16:42:10;4.10;99.90
5806;DHT22;2929;50.810;8.342;2023-02-01T16:44:39;4.20;99.90
5806;DHT22;2929;50.810;8.342;2023-02-01T16:47:12;4.20;99.90
5806;DHT22;2929;50.810;8.342;2023-02-01T16:49:42;4.20;99.90
5806;DHT22;2929;50.810;8.342;2023-02-01T16:52:14;4.30;99.90
5806;DHT22;2929;50.810;8.342;2023-02-01T16:54:42;4.30;99.90
5806;DHT22;2929;50.810;8.342;2023-02-01T16:57:12;4.40;99.90
5806;DHT22;2929;50.810;8.342;2023-02-01T16:59:40;4.30;99.90
5806;DHT22;2929;50.810;8.342;2023-02-01T17:02:11;4.30;99.90
5806;DHT22;2929;50.810;8.342;2023-02-01T17:04:39;4.40;99.90
5806;DHT22;2929;50.810;8.342;2023-02-01T17:07:09;4.40;99.90
5806;DHT22;2929;50.810;8.342;2023-02-01T17:09:38;4.30;99.90
5806;DHT22;2929;50.810;8.342;2023-02-01T17:12:06;4.30;99.90
5806;DHT22;2929;50.810;8.342;2023-02-01T17:14:36;4.30;99.90
5806;DHT22;2929;50.810;8.342;2023-02-01T17:17:06;4.30;99.90
5806;DHT22;2929;50.810;8.342;2023-02-01T17:19:34;4.40;99.90
5806;DHT22;2929;50.810;8.342;2023-02-01T17:22:01;4.40;99.90
5806;DHT22;2929;50.810;8.342;2023-02-01T17:24:31;4.40;99.90
5806;DHT22;2929;50.810;8.342;2023-02-01T17:26:58;4.40;99.90
5806;DHT22;2929;50.810;8.342;2023-02-01T17:29:25;4.40;99.90